Time;durP1;ratioP1;P1;durP2;ratioP2;P2;SDS_P1;SDS_P2;PMS_P1;PMS_P2;Temp;Humidity;BMP_temperature;BMP_pressure;BME280_temperature;BME280_humidity;BME280_pressure;Samples;Min_cycle;Max_cycle;Signal;HPM_P1;HPM_P2
2024/03/04 00:00:22;;;;;;;0.10;0.10;;;;;;;;;;5094712;28;20120;-85
2024/03/04 00:02:48;;;;;;;0.10;0.10;;;;;;;;;;5077755;28;20051;-86
2024/03/04 00:05:14;;;;;;;0.10;0.10;;;;;;;;;;5077931;28;20043;-85
2024/03/04 00:07:40;;;;;;;0.10;0.10;;;;;;;;;;5094611;28;20047;-85
2024/03/04 00:10:07;;;;;;;0.30;0.30;;;;;;;;;;5077736;28;20468;-85
2024/03/04 00:12:33;;;;;;;0.10;0.10;;;;;;;;;;5093935;28;20084;-85
2024/03/04 00:14:59;;;;;;;0.10;0.10;;;;;;;;;;5094591;28;20039;-85
2024/03/04 00:17:25;;;;;;;0.10;0.10;;;;;;;;;;5094507;28;20040;-86
2024/03/04 00:19:54;;;;;;;0.15;0.15;;;;;;;;;;5094499;28;20074;-85
2024/03/04 00:22:20;;;;;;;0.10;0.10;;;;;;;;;;5094862;28;20105;-87
2024/03/04 00:24:46;;;;;;;0.10;0.10;;;;;;;;;;5094482;28;20500;-86
2024/03/04 00:27:12;;;;;;;0.10;0.10;;;;;;;;;;5094854;28;20082;-87
2024/03/04 00:29:38;;;;;;;0.10;0.10;;;;;;;;;;5094436;28;20039;-86
2024/03/04 00:32:05;;;;;;;0.43;0.20;;;;;;;;;;5094408;28;20085;-86
2024/03/04 00:34:32;;;;;;;0.20;0.20;;;;;;;;;;5111267;28;20053;-86
2024/03/04 00:36:58;;;;;;;0.10;0.10;;;;;;;;;;5077642;28;20043;-86
2024/03/04 00:39:24;;;;;;;0.10;0.10;;;;;;;;;;5094377;28;20048;-86
2024/03/04 00:41:50;;;;;;;0.10;0.10;;;;;;;;;;5077790;28;20130;-86
2024/03/04 00:44:16;;;;;;;0.10;0.10;;;;;;;;;;5094388;28;20044;-86
2024/03/04 00:46:42;;;;;;;0.10;0.10;;;;;;;;;;5094438;28;20054;-87
2024/03/04 00:49:09;;;;;;;0.10;0.10;;;;;;;;;;5094009;28;20055;-87
2024/03/04 00:51:38;;;;;;;0.30;0.30;;;;;;;;;;5094168;28;20046;-88
2024/03/04 00:54:05;;;;;;;0.10;0.10;;;;;;;;;;5111343;28;20039;-86
2024/03/04 00:56:31;;;;;;;0.20;0.20;;;;;;;;;;5077459;28;20118;-86
2024/03/04 00:58:58;;;;;;;0.50;0.50;;;;;;;;;;5094082;28;20509;-86
2024/03/04 01:01:24;;;;;;;0.13;0.13;;;;;;;;;;5077403;28;20055;-86
2024/03/04 01:03:50;;;;;;;0.52;0.22;;;;;;;;;;5077513;28;20394;-85
2024/03/04 01:06:16;;;;;;;0.60;0.55;;;;;;;;;;5094037;28;20044;-86
2024/03/04 01:08:43;;;;;;;0.73;0.63;;;;;;;;;;5077463;28;20051;-86
2024/03/04 01:11:09;;;;;;;0.30;0.30;;;;;;;;;;5077252;28;20044;-86
2024/03/04 01:13:35;;;;;;;0.10;0.10;;;;;;;;;;5110924;28;20040;-85
2024/03/04 01:16:01;;;;;;;0.57;0.32;;;;;;;;;;5094001;28;20047;-86
2024/03/04 01:18:28;;;;;;;0.30;0.30;;;;;;;;;;5093849;28;20035;-85
2024/03/04 01:20:54;;;;;;;0.90;0.40;;;;;;;;;;5077106;28;20482;-85
2024/03/04 01:23:20;;;;;;;0.17;0.17;;;;;;;;;;5077242;28;20040;-86
2024/03/04 01:25:46;;;;;;;0.10;0.10;;;;;;;;;;5097876;28;20437;-85
2024/03/04 01:28:13;;;;;;;0.20;0.20;;;;;;;;;;5114865;28;20145;-86
2024/03/04 01:30:39;;;;;;;0.10;0.10;;;;;;;;;;5114715;28;20035;-85
2024/03/04 01:33:08;;;;;;;0.98;0.98;;;;;;;;;;5097859;28;20044;-85
2024/03/04 01:35:34;;;;;;;0.10;0.10;;;;;;;;;;5081065;28;20039;-85
2024/03/04 01:38:01;;;;;;;0.10;0.10;;;;;;;;;;5114410;28;20459;-86
2024/03/04 01:40:28;;;;;;;0.10;0.10;;;;;;;;;;5080687;28;20481;-85
2024/03/04 01:42:57;;;;;;;0.10;0.10;;;;;;;;;;5080691;28;20126;-86
2024/03/04 01:45:23;;;;;;;0.10;0.10;;;;;;;;;;5114522;28;20044;-85
2024/03/04 01:47:51;;;;;;;0.20;0.20;;;;;;;;;;5114203;28;20046;-86
2024/03/04 01:50:18;;;;;;;0.30;0.30;;;;;;;;;;5097249;28;20032;-85
2024/03/04 01:52:44;;;;;;;0.10;0.10;;;;;;;;;;5114456;28;20391;-87
2024/03/04 01:55:10;;;;;;;0.10;0.10;;;;;;;;;;5080286;28;20493;-85
2024/03/04 01:57:36;;;;;;;0.10;0.10;;;;;;;;;;5080201;28;20035;-86
2024/03/04 02:00:11;;;;;;;0.10;0.10;;;;;;;;;;5097222;28;20039;-86
2024/03/04 02:02:37;;;;;;;0.10;0.10;;;;;;;;;;5096771;28;20048;-85
2024/03/04 02:05:08;;;;;;;0.10;0.10;;;;;;;;;;5096844;28;20495;-87
2024/03/04 02:07:37;;;;;;;0.10;0.10;;;;;;;;;;5081159;28;20390;-86
2024/03/04 02:10:05;;;;;;;0.10;0.10;;;;;;;;;;5080343;28;20083;-86
2024/03/04 02:12:31;;;;;;;0.10;0.10;;;;;;;;;;5097043;28;20108;-86
2024/03/04 02:14:57;;;;;;;0.10;0.10;;;;;;;;;;5113692;28;20052;-86
2024/03/04 02:17:23;;;;;;;0.10;0.10;;;;;;;;;;5096995;28;20061;-86
2024/03/04 02:19:49;;;;;;;0.10;0.10;;;;;;;;;;5080087;28;20035;-87
2024/03/04 02:22:15;;;;;;;0.10;0.10;;;;;;;;;;5113685;28;20491;-86
2024/03/04 02:24:41;;;;;;;0.10;0.10;;;;;;;;;;5096574;28;20506;-86
2024/03/04 02:27:08;;;;;;;0.10;0.10;;;;;;;;;;5079677;28;20042;-86
2024/03/04 02:29:33;;;;;;;0.10;0.10;;;;;;;;;;5079613;28;20127;-86
2024/03/04 02:32:00;;;;;;;0.10;0.10;;;;;;;;;;5114588;28;20127;-86
2024/03/04 02:34:26;;;;;;;0.10;0.10;;;;;;;;;;5079621;28;20105;-87
2024/03/04 02:36:52;;;;;;;0.20;0.20;;;;;;;;;;5096013;28;20057;-84
2024/03/04 02:39:18;;;;;;;0.10;0.10;;;;;;;;;;5113689;28;20044;-86
2024/03/04 02:41:44;;;;;;;0.10;0.10;;;;;;;;;;5079311;28;20543;-85
2024/03/04 02:44:10;;;;;;;0.10;0.10;;;;;;;;;;5096454;28;20051;-86
2024/03/04 02:46:40;;;;;;;0.10;0.10;;;;;;;;;;5096052;28;20491;-85
2024/03/04 02:49:06;;;;;;;0.10;0.10;;;;;;;;;;5095963;28;20039;-85
2024/03/04 02:51:32;;;;;;;0.10;0.10;;;;;;;;;;5096260;28;20428;-85
2024/03/04 02:53:58;;;;;;;0.20;0.20;;;;;;;;;;5079157;28;20181;-86
2024/03/04 02:56:24;;;;;;;0.80;0.25;;;;;;;;;;5095904;28;20074;-84
2024/03/04 02:58:50;;;;;;;0.32;0.30;;;;;;;;;;5095988;28;20047;-84
2024/03/04 03:01:17;;;;;;;0.20;0.20;;;;;;;;;;5095612;28;20062;-86
2024/03/04 03:03:43;;;;;;;0.10;0.10;;;;;;;;;;5112680;28;20050;-86
2024/03/04 03:06:10;;;;;;;0.38;0.38;;;;;;;;;;5113986;28;20039;-85
2024/03/04 03:08:36;;;;;;;0.10;0.10;;;;;;;;;;5095816;28;20051;-86
2024/03/04 03:11:02;;;;;;;0.10;0.10;;;;;;;;;;5112403;28;20044;-85
2024/03/04 03:13:28;;;;;;;0.20;0.17;;;;;;;;;;5095924;28;20077;-84
2024/03/04 03:15:54;;;;;;;0.10;0.10;;;;;;;;;;5112530;28;20039;-87
2024/03/04 03:18:20;;;;;;;0.10;0.10;;;;;;;;;;5096017;28;20547;-85
2024/03/04 03:20:46;;;;;;;0.10;0.10;;;;;;;;;;5078555;28;20043;-85
2024/03/04 03:23:12;;;;;;;0.30;0.30;;;;;;;;;;5078776;28;20043;-85
2024/03/04 03:25:38;;;;;;;0.10;0.10;;;;;;;;;;5078341;28;20039;-84
2024/03/04 03:28:04;;;;;;;0.10;0.10;;;;;;;;;;5112151;28;20047;-86
2024/03/04 03:30:30;;;;;;;0.13;0.13;;;;;;;;;;5095442;28;20065;-85
2024/03/04 03:32:56;;;;;;;0.10;0.10;;;;;;;;;;5095274;28;20032;-86
2024/03/04 03:35:22;;;;;;;0.10;0.10;;;;;;;;;;5095284;28;20483;-85
2024/03/04 03:37:48;;;;;;;0.28;0.28;;;;;;;;;;5078227;28;20036;-85
2024/03/04 03:40:14;;;;;;;0.10;0.10;;;;;;;;;;5095209;28;20063;-85
2024/03/04 03:42:41;;;;;;;0.10;0.10;;;;;;;;;;5111924;28;20485;-86
2024/03/04 03:45:08;;;;;;;0.10;0.10;;;;;;;;;;5095169;28;20043;-86
2024/03/04 03:47:34;;;;;;;0.10;0.10;;;;;;;;;;5078396;28;20397;-85
2024/03/04 03:50:01;;;;;;;0.10;0.10;;;;;;;;;;5111664;28;20059;-85
2024/03/04 03:52:28;;;;;;;0.10;0.10;;;;;;;;;;5095155;28;20225;-84
2024/03/04 03:54:54;;;;;;;0.20;0.20;;;;;;;;;;5095080;28;20122;-85
2024/03/04 03:57:20;;;;;;;0.10;0.10;;;;;;;;;;5094778;28;20067;-85
2024/03/04 03:59:46;;;;;;;0.10;0.10;;;;;;;;;;5094637;28;20671;-85
2024/03/04 04:02:12;;;;;;;0.10;0.10;;;;;;;;;;5111340;28;20063;-86
2024/03/04 04:04:39;;;;;;;0.15;0.15;;;;;;;;;;5094722;28;20055;-86
2024/03/04 04:07:05;;;;;;;0.10;0.10;;;;;;;;;;5094695;28;20466;-85
2024/03/04 04:09:31;;;;;;;0.10;0.10;;;;;;;;;;5078029;28;20079;-85
2024/03/04 04:11:57;;;;;;;0.10;0.10;;;;;;;;;;5111456;28;20043;-86
2024/03/04 04:14:22;;;;;;;0.10;0.10;;;;;;;;;;5094741;28;20085;-85
2024/03/04 04:16:49;;;;;;;0.10;0.10;;;;;;;;;;5094581;28;20456;-85
2024/03/04 04:19:16;;;;;;;0.43;0.43;;;;;;;;;;5094580;28;20097;-85
2024/03/04 04:21:42;;;;;;;0.10;0.10;;;;;;;;;;5094411;28;20035;-85
2024/03/04 04:24:09;;;;;;;0.10;0.10;;;;;;;;;;5077686;28;20046;-85
2024/03/04 04:26:35;;;;;;;0.20;0.20;;;;;;;;;;5077666;28;20069;-84
2024/03/04 04:29:03;;;;;;;0.10;0.10;;;;;;;;;;5094330;28;20044;-83
2024/03/04 04:31:29;;;;;;;0.10;0.10;;;;;;;;;;5094248;28;20036;-86
2024/03/04 04:33:55;;;;;;;0.10;0.10;;;;;;;;;;5077684;28;20118;-86
2024/03/04 04:36:21;;;;;;;0.10;0.10;;;;;;;;;;5111134;28;20051;-87
2024/03/04 04:38:47;;;;;;;0.10;0.10;;;;;;;;;;5077834;28;20044;-87
2024/03/04 04:41:13;;;;;;;0.10;0.10;;;;;;;;;;5094310;28;20063;-85
2024/03/04 04:43:39;;;;;;;0.15;0.15;;;;;;;;;;5077391;28;20050;-85
2024/03/04 04:46:05;;;;;;;0.10;0.10;;;;;;;;;;5094270;28;20512;-85
2024/03/04 04:48:32;;;;;;;0.20;0.20;;;;;;;;;;5094204;28;20088;-85
2024/03/04 04:50:58;;;;;;;0.15;0.15;;;;;;;;;;5094265;28;20031;-86
2024/03/04 04:53:24;;;;;;;0.20;0.20;;;;;;;;;;5094327;28;20335;-85
2024/03/04 04:55:50;;;;;;;0.10;0.10;;;;;;;;;;5094205;28;20041;-85
2024/03/04 04:58:17;;;;;;;0.22;0.22;;;;;;;;;;5077288;28;20089;-86
2024/03/04 05:00:43;;;;;;;0.10;0.10;;;;;;;;;;5080972;28;20043;-85
2024/03/04 05:03:10;;;;;;;0.20;0.20;;;;;;;;;;5098301;28;20136;-86
2024/03/04 05:05:36;;;;;;;0.63;0.20;;;;;;;;;;5098015;28;20039;-86
2024/03/04 05:08:02;;;;;;;0.80;0.63;;;;;;;;;;5081146;28;20044;-86
2024/03/04 05:10:28;;;;;;;0.10;0.10;;;;;;;;;;5081451;28;20032;-85
2024/03/04 05:12:54;;;;;;;0.10;0.10;;;;;;;;;;5097971;28;20050;-85
2024/03/04 05:15:20;;;;;;;0.10;0.10;;;;;;;;;;5097842;28;20060;-86
2024/03/04 05:17:46;;;;;;;0.10;0.10;;;;;;;;;;5080812;28;20080;-86
2024/03/04 05:20:15;;;;;;;0.10;0.10;;;;;;;;;;5097577;28;20134;-87
2024/03/04 05:22:41;;;;;;;0.10;0.10;;;;;;;;;;5098367;28;20039;-87
2024/03/04 05:25:08;;;;;;;0.10;0.10;;;;;;;;;;5097741;28;20044;-85
2024/03/04 05:27:34;;;;;;;0.10;0.10;;;;;;;;;;5080734;28;20035;-86
2024/03/04 05:30:00;;;;;;;0.75;0.30;;;;;;;;;;5080841;28;20079;-86
2024/03/04 05:32:26;;;;;;;0.10;0.10;;;;;;;;;;5097669;28;20043;-86
2024/03/04 05:34:52;;;;;;;0.10;0.10;;;;;;;;;;5097516;28;20111;-86
2024/03/04 05:37:18;;;;;;;0.10;0.10;;;;;;;;;;5080819;28;20124;-85
2024/03/04 05:39:47;;;;;;;0.10;0.10;;;;;;;;;;5114381;28;20502;-86
2024/03/04 05:42:13;;;;;;;0.30;0.30;;;;;;;;;;5080539;28;20051;-86
2024/03/04 05:44:39;;;;;;;0.10;0.10;;;;;;;;;;5114254;28;20385;-86
2024/03/04 05:47:06;;;;;;;0.10;0.10;;;;;;;;;;5097217;28;20076;-85
2024/03/04 05:49:32;;;;;;;0.20;0.20;;;;;;;;;;5114565;28;20040;-85
2024/03/04 05:51:59;;;;;;;0.52;0.20;;;;;;;;;;5097305;28;20119;-85
2024/03/04 05:54:26;;;;;;;0.20;0.20;;;;;;;;;;5114282;28;20421;-85
2024/03/04 05:56:52;;;;;;;0.30;0.30;;;;;;;;;;5097348;28;20035;-85
2024/03/04 05:59:18;;;;;;;0.10;0.10;;;;;;;;;;5097042;28;20048;-85
2024/03/04 06:01:45;;;;;;;0.10;0.10;;;;;;;;;;5096759;28;20055;-86
2024/03/04 06:04:11;;;;;;;0.10;0.10;;;;;;;;;;5080206;28;20552;-86
2024/03/04 06:06:37;;;;;;;0.20;0.20;;;;;;;;;;5096924;28;20045;-86
2024/03/04 06:09:04;;;;;;;0.40;0.40;;;;;;;;;;5096886;28;20403;-87
2024/03/04 06:11:30;;;;;;;0.30;0.30;;;;;;;;;;5095622;28;20084;-86
2024/03/04 06:13:56;;;;;;;0.10;0.10;;;;;;;;;;5096631;28;20035;-86
2024/03/04 06:16:22;;;;;;;0.10;0.10;;;;;;;;;;5096562;28;20118;-85
2024/03/04 06:18:48;;;;;;;0.10;0.10;;;;;;;;;;5096393;28;20039;-85
2024/03/04 06:21:14;;;;;;;0.10;0.10;;;;;;;;;;5096256;28;20047;-85
2024/03/04 06:23:41;;;;;;;0.10;0.10;;;;;;;;;;5096472;28;20104;-86
2024/03/04 06:26:11;;;;;;;0.10;0.10;;;;;;;;;;5113461;28;20078;-85
2024/03/04 06:28:37;;;;;;;0.10;0.10;;;;;;;;;;5096724;28;20043;-85
2024/03/04 06:31:03;;;;;;;0.10;0.10;;;;;;;;;;5095948;28;20039;-86
2024/03/04 06:33:29;;;;;;;0.30;0.30;;;;;;;;;;5096384;28;20122;-86
2024/03/04 06:35:55;;;;;;;0.10;0.10;;;;;;;;;;5079345;28;20036;-86
2024/03/04 06:38:21;;;;;;;0.10;0.10;;;;;;;;;;5079207;28;20040;-85
2024/03/04 06:40:48;;;;;;;0.10;0.10;;;;;;;;;;5079296;28;20127;-86
2024/03/04 06:43:15;;;;;;;0.10;0.10;;;;;;;;;;5096488;28;20439;-86
2024/03/04 06:45:41;;;;;;;0.10;0.10;;;;;;;;;;5113070;28;20040;-85
2024/03/04 06:48:07;;;;;;;0.10;0.10;;;;;;;;;;5079000;28;20044;-85
2024/03/04 06:50:33;;;;;;;0.20;0.20;;;;;;;;;;5079142;28;20043;-87
2024/03/04 06:53:00;;;;;;;0.10;0.10;;;;;;;;;;5079262;28;20082;-85
2024/03/04 06:55:26;;;;;;;0.10;0.10;;;;;;;;;;5095916;28;20039;-85
2024/03/04 06:57:52;;;;;;;0.10;0.10;;;;;;;;;;5095703;28;20059;-86
2024/03/04 07:00:18;;;;;;;0.10;0.10;;;;;;;;;;5078881;28;20494;-86
2024/03/04 07:02:44;;;;;;;0.10;0.10;;;;;;;;;;5095554;28;20043;-86
2024/03/04 07:05:10;;;;;;;0.10;0.10;;;;;;;;;;5078866;28;20134;-86
2024/03/04 07:07:36;;;;;;;0.10;0.10;;;;;;;;;;5112700;28;20494;-86
2024/03/04 07:10:02;;;;;;;0.10;0.10;;;;;;;;;;5095864;28;20083;-86
2024/03/04 07:12:28;;;;;;;0.10;0.10;;;;;;;;;;5095678;28;20405;-85
2024/03/04 07:14:54;;;;;;;0.20;0.20;;;;;;;;;;5112390;28;20133;-85
2024/03/04 07:17:20;;;;;;;0.20;0.20;;;;;;;;;;5112242;28;20035;-86
2024/03/04 07:19:46;;;;;;;0.10;0.10;;;;;;;;;;5112226;28;20043;-85
2024/03/04 07:22:12;;;;;;;0.30;0.30;;;;;;;;;;5078307;28;20052;-85
2024/03/04 07:24:38;;;;;;;0.10;0.10;;;;;;;;;;5095146;28;20118;-85
2024/03/04 07:27:05;;;;;;;0.20;0.20;;;;;;;;;;5112194;28;20050;-86
2024/03/04 07:29:30;;;;;;;0.10;0.10;;;;;;;;;;5111978;28;20040;-86
2024/03/04 07:31:57;;;;;;;0.10;0.10;;;;;;;;;;5095162;28;20452;-85
2024/03/04 07:34:26;;;;;;;0.32;0.30;;;;;;;;;;5111904;28;20035;-86
2024/03/04 07:36:52;;;;;;;0.17;0.10;;;;;;;;;;5094892;28;20047;-86
2024/03/04 07:39:18;;;;;;;0.17;0.17;;;;;;;;;;5112108;28;20054;-85
2024/03/04 07:41:44;;;;;;;0.15;0.15;;;;;;;;;;5094655;28;20039;-85
2024/03/04 07:44:10;;;;;;;0.30;0.30;;;;;;;;;;5111744;28;20537;-85
2024/03/04 07:46:36;;;;;;;0.65;0.65;;;;;;;;;;5078028;28;20483;-86
2024/03/04 07:49:02;;;;;;;0.20;0.20;;;;;;;;;;5094899;28;20047;-87
2024/03/04 07:51:28;;;;;;;0.57;0.57;;;;;;;;;;5077721;28;20131;-84
2024/03/04 07:53:54;;;;;;;0.20;0.20;;;;;;;;;;5094596;28;20071;-84
2024/03/04 07:56:20;;;;;;;0.20;0.20;;;;;;;;;;5111719;28;20042;-84
2024/03/04 07:58:46;;;;;;;0.25;0.17;;;;;;;;;;5094655;28;20521;-84
2024/03/04 08:01:13;;;;;;;0.60;0.57;;;;;;;;;;5094280;28;20055;-83
2024/03/04 08:03:39;;;;;;;0.65;0.43;;;;;;;;;;5111670;28;20559;-83
2024/03/04 08:06:06;;;;;;;1.38;0.35;;;;;;;;;;5094531;28;20075;-85
2024/03/04 08:08:32;;;;;;;0.30;0.20;;;;;;;;;;5111550;28;20054;-85
2024/03/04 08:10:58;;;;;;;0.10;0.10;;;;;;;;;;5094394;28;20130;-85
2024/03/04 08:13:24;;;;;;;0.10;0.10;;;;;;;;;;5093444;28;20120;-85
2024/03/04 08:15:51;;;;;;;0.20;0.20;;;;;;;;;;5077293;28;20043;-83
2024/03/04 08:18:17;;;;;;;0.20;0.20;;;;;;;;;;5111129;28;20053;-84
2024/03/04 08:20:43;;;;;;;0.10;0.10;;;;;;;;;;5094358;28;20157;-85
2024/03/04 08:23:09;;;;;;;0.10;0.10;;;;;;;;;;5077307;28;20044;-85
2024/03/04 08:25:35;;;;;;;1.85;0.40;;;;;;;;;;5077365;28;20043;-85
2024/03/04 08:28:01;;;;;;;0.60;0.60;;;;;;;;;;5110882;28;20043;-85
2024/03/04 08:30:27;;;;;;;0.68;0.68;;;;;;;;;;5077216;28;20039;-84
2024/03/04 08:32:53;;;;;;;0.43;0.43;;;;;;;;;;5077371;28;20398;-85
2024/03/04 08:35:19;;;;;;;0.10;0.10;;;;;;;;;;5093641;28;20072;-85
2024/03/04 08:37:45;;;;;;;0.40;0.40;;;;;;;;;;5110880;28;20036;-85
2024/03/04 08:40:14;;;;;;;0.20;0.20;;;;;;;;;;5110655;28;20043;-85
2024/03/04 08:42:41;;;;;;;0.17;0.17;;;;;;;;;;5077374;28;20039;-85
2024/03/04 08:45:08;;;;;;;0.20;0.20;;;;;;;;;;5077312;28;20104;-85
2024/03/04 08:47:34;;;;;;;0.30;0.30;;;;;;;;;;5094155;28;20065;-85
2024/03/04 08:50:00;;;;;;;0.52;0.50;;;;;;;;;;5093886;28;20039;-85
2024/03/04 08:52:27;;;;;;;0.22;0.22;;;;;;;;;;5094024;28;20044;-84
2024/03/04 08:54:56;;;;;;;0.30;0.30;;;;;;;;;;5094251;28;20063;-85
2024/03/04 08:57:22;;;;;;;0.60;0.60;;;;;;;;;;5093778;28;20036;-85
2024/03/04 08:59:48;;;;;;;0.20;0.20;;;;;;;;;;5076985;28;20120;-84
2024/03/04 09:02:14;;;;;;;0.93;0.68;;;;;;;;;;5093703;28;20087;-83
2024/03/04 09:04:40;;;;;;;1.65;0.70;;;;;;;;;;5076963;28;20039;-82
2024/03/04 09:07:09;;;;;;;0.40;0.40;;;;;;;;;;5110715;28;20126;-83
2024/03/04 09:09:35;;;;;;;0.10;0.10;;;;;;;;;;5077186;28;20071;-83
2024/03/04 09:12:03;;;;;;;0.22;0.22;;;;;;;;;;5077159;28;20047;-83
2024/03/04 09:14:30;;;;;;;0.10;0.10;;;;;;;;;;5094036;28;20118;-83
2024/03/04 09:16:56;;;;;;;0.20;0.20;;;;;;;;;;5110625;28;20035;-82
2024/03/04 09:19:22;;;;;;;0.20;0.20;;;;;;;;;;5072194;28;20090;-83
2024/03/04 09:21:48;;;;;;;0.10;0.10;;;;;;;;;;5090199;28;20040;-83
2024/03/04 09:24:14;;;;;;;0.40;0.40;;;;;;;;;;5102205;28;20394;-83
2024/03/04 09:26:45;;;;;;;0.10;0.10;;;;;;;;;;5062684;28;20356;-84
2024/03/04 09:29:12;;;;;;;0.10;0.10;;;;;;;;;;5092303;28;20040;-83
2024/03/04 09:31:39;;;;;;;0.10;0.10;;;;;;;;;;5074192;28;20357;-82
2024/03/04 09:34:05;;;;;;;0.30;0.30;;;;;;;;;;5093945;28;20047;-83
2024/03/04 09:36:31;;;;;;;0.10;0.10;;;;;;;;;;5083802;28;20032;-83
2024/03/04 09:38:57;;;;;;;0.10;0.10;;;;;;;;;;5073297;28;20055;-83
2024/03/04 09:41:25;;;;;;;0.38;0.20;;;;;;;;;;5073257;28;20047;-84
2024/03/04 09:43:51;;;;;;;0.20;0.20;;;;;;;;;;5057745;28;20122;-85
2024/03/04 09:46:17;;;;;;;0.10;0.10;;;;;;;;;;5079291;28;20086;-84
2024/03/04 09:48:43;;;;;;;1.45;0.30;;;;;;;;;;5113690;28;20097;-83
2024/03/04 09:51:11;;;;;;;0.52;0.20;;;;;;;;;;5114017;28;20036;-84
2024/03/04 09:53:37;;;;;;;0.10;0.10;;;;;;;;;;5114217;28;20479;-83
2024/03/04 09:56:05;;;;;;;0.35;0.35;;;;;;;;;;5096791;28;20071;-83
2024/03/04 09:58:34;;;;;;;0.10;0.10;;;;;;;;;;5113950;28;20359;-83
2024/03/04 10:01:00;;;;;;;0.65;0.20;;;;;;;;;;5096549;28;20581;-83
2024/03/04 10:03:28;;;;;;;0.10;0.10;;;;;;;;;;5096592;28;20054;-83
2024/03/04 10:05:55;;;;;;;0.22;0.22;;;;;;;;;;5096639;28;20043;-83
2024/03/04 10:08:21;;;;;;;0.10;0.10;;;;;;;;;;5096684;28;20117;-83
2024/03/04 10:10:50;;;;;;;0.17;0.17;;;;;;;;;;5079930;28;20501;-83
2024/03/04 10:13:16;;;;;;;0.10;0.10;;;;;;;;;;5079848;28;20039;-84
2024/03/04 10:15:45;;;;;;;0.40;0.40;;;;;;;;;;5079885;28;20336;-83
2024/03/04 10:18:11;;;;;;;0.20;0.20;;;;;;;;;;5096770;28;20036;-83
2024/03/04 10:20:37;;;;;;;0.10;0.10;;;;;;;;;;5096882;28;20416;-83
2024/03/04 10:23:03;;;;;;;0.10;0.10;;;;;;;;;;5096488;28;20031;-83
2024/03/04 10:25:29;;;;;;;0.10;0.10;;;;;;;;;;5113591;28;20073;-84
2024/03/04 10:27:55;;;;;;;0.85;0.85;;;;;;;;;;5096583;28;20035;-84
2024/03/04 10:30:23;;;;;;;0.10;0.10;;;;;;;;;;5096330;28;20040;-84
2024/03/04 10:32:49;;;;;;;4.03;1.00;;;;;;;;;;5096313;28;20065;-84
2024/03/04 10:35:15;;;;;;;0.20;0.20;;;;;;;;;;5095710;28;20028;-82
2024/03/04 10:37:41;;;;;;;0.50;0.50;;;;;;;;;;5096526;28;20071;-84
2024/03/04 10:40:11;;;;;;;0.10;0.10;;;;;;;;;;5113344;28;20075;-83
2024/03/04 10:42:40;;;;;;;0.10;0.10;;;;;;;;;;5098167;28;20044;-86
2024/03/04 10:45:07;;;;;;;1.38;0.60;;;;;;;;;;5079166;28;20043;-86
2024/03/04 10:47:33;;;;;;;0.20;0.20;;;;;;;;;;5079267;28;20035;-86
2024/03/04 10:49:59;;;;;;;0.10;0.10;;;;;;;;;;5095917;28;20165;-86
2024/03/04 10:52:26;;;;;;;0.40;0.40;;;;;;;;;;5079629;28;20070;-86
2024/03/04 10:54:52;;;;;;;0.10;0.10;;;;;;;;;;5113158;28;20123;-86
2024/03/04 10:57:27;;;;;;;0.30;0.30;;;;;;;;;;5078484;28;20067;-86
2024/03/04 11:02:51;;;;;;;0.10;0.10;;;;;;;;;;5112920;28;20066;-85
2024/03/04 11:05:17;;;;;;;0.10;0.10;;;;;;;;;;5075473;28;20493;-84
2024/03/04 11:07:43;;;;;;;0.20;0.20;;;;;;;;;;5059260;28;20502;-89
2024/03/04 11:10:19;;;;;;;0.98;0.57;;;;;;;;;;5061514;28;20074;-85
2024/03/04 11:12:46;;;;;;;0.30;0.30;;;;;;;;;;5061640;28;20040;-87
2024/03/04 11:15:13;;;;;;;0.28;0.15;;;;;;;;;;5080892;28;20105;-88
2024/03/04 11:17:43;;;;;;;0.10;0.10;;;;;;;;;;5059788;28;20131;-89
2024/03/04 11:20:09;;;;;;;0.10;0.10;;;;;;;;;;5079059;28;20047;-89
2024/03/04 11:22:37;;;;;;;0.50;0.50;;;;;;;;;;5066761;28;20065;-89
2024/03/04 11:25:04;;;;;;;0.43;0.43;;;;;;;;;;5082726;28;20055;-85
2024/03/04 11:27:30;;;;;;;0.20;0.20;;;;;;;;;;5070127;28;20095;-87
2024/03/04 11:29:56;;;;;;;0.10;0.10;;;;;;;;;;5110961;28;20071;-87
2024/03/04 11:32:26;;;;;;;0.10;0.10;;;;;;;;;;5098016;28;20036;-88
2024/03/04 11:34:59;;;;;;;2.28;0.30;;;;;;;;;;5076069;28;20036;-88
2024/03/04 11:37:29;;;;;;;0.10;0.10;;;;;;;;;;5091853;28;20040;-88
2024/03/04 11:39:55;;;;;;;0.10;0.10;;;;;;;;;;5075808;28;20097;-92
2024/03/04 11:42:34;;;;;;;0.10;0.10;;;;;;;;;;5058781;28;20085;-89
2024/03/04 11:45:00;;;;;;;0.10;0.10;;;;;;;;;;5075179;28;20097;-89
2024/03/04 11:47:32;;;;;;;0.10;0.10;;;;;;;;;;5075260;28;20104;-86
2024/03/04 11:49:59;;;;;;;3.17;0.85;;;;;;;;;;5074927;28;20401;-87
2024/03/04 11:52:26;;;;;;;0.65;0.35;;;;;;;;;;5074225;28;20059;-86
2024/03/04 11:54:52;;;;;;;0.10;0.10;;;;;;;;;;5091626;28;20051;-88
2024/03/04 11:57:18;;;;;;;0.10;0.10;;;;;;;;;;5078155;28;20122;-88
2024/03/04 11:59:59;;;;;;;1.52;0.63;;;;;;;;;;5095220;28;20071;-87
2024/03/04 12:02:25;;;;;;;0.40;0.40;;;;;;;;;;5077686;28;20059;-88
2024/03/04 12:04:53;;;;;;;1.15;1.15;;;;;;;;;;5084538;28;20043;-88
2024/03/04 12:07:20;;;;;;;0.20;0.20;;;;;;;;;;5057955;28;20032;-88
2024/03/04 12:09:47;;;;;;;0.63;0.63;;;;;;;;;;5090264;28;20044;-88
2024/03/04 12:12:13;;;;;;;0.65;0.25;;;;;;;;;;5074614;28;20040;-87
2024/03/04 12:14:39;;;;;;;0.43;0.43;;;;;;;;;;5074469;28;20127;-87
2024/03/04 12:17:06;;;;;;;2.15;0.88;;;;;;;;;;5074899;28;20483;-89
2024/03/04 12:19:33;;;;;;;1.13;0.68;;;;;;;;;;5074846;28;20127;-88
2024/03/04 12:21:59;;;;;;;0.35;0.35;;;;;;;;;;5058081;28;20123;-88
2024/03/04 12:24:26;;;;;;;0.10;0.10;;;;;;;;;;5074671;28;20404;-88
2024/03/04 12:26:54;;;;;;;2.28;0.47;;;;;;;;;;5057711;28;20062;-88
2024/03/04 12:29:21;;;;;;;0.10;0.10;;;;;;;;;;5090738;28;20044;-87
2024/03/04 12:31:48;;;;;;;0.20;0.20;;;;;;;;;;5074413;28;20106;-88
2024/03/04 12:34:14;;;;;;;0.45;0.30;;;;;;;;;;5057786;28;20036;-85
2024/03/04 12:36:43;;;;;;;0.43;0.43;;;;;;;;;;5074359;28;20474;-86
2024/03/04 12:39:12;;;;;;;0.20;0.20;;;;;;;;;;5091747;28;20040;-87
2024/03/04 12:41:40;;;;;;;0.38;0.38;;;;;;;;;;5074167;28;20044;-87
2024/03/04 12:44:06;;;;;;;0.20;0.20;;;;;;;;;;5057567;28;20042;-86
2024/03/04 12:46:33;;;;;;;1.45;0.65;;;;;;;;;;5057656;28;20040;-85
2024/03/04 12:49:05;;;;;;;0.13;0.13;;;;;;;;;;5074013;28;20040;-85
2024/03/04 12:51:37;;;;;;;0.93;0.93;;;;;;;;;;5057308;28;20040;-86
2024/03/04 12:54:04;;;;;;;0.52;0.52;;;;;;;;;;5057497;28;20081;-85
2024/03/04 12:56:33;;;;;;;0.40;0.40;;;;;;;;;;5090400;28;20502;-85
2024/03/04 12:58:59;;;;;;;0.20;0.20;;;;;;;;;;5090589;28;20040;-87
2024/03/04 13:01:27;;;;;;;0.30;0.25;;;;;;;;;;5073736;28;20445;-86
2024/03/04 13:03:54;;;;;;;1.95;1.10;;;;;;;;;;5095218;28;20076;-88
2024/03/04 13:06:20;;;;;;;0.50;0.50;;;;;;;;;;5057678;28;20058;-87
2024/03/04 13:08:46;;;;;;;0.20;0.20;;;;;;;;;;5058950;28;20130;-88
2024/03/04 13:11:12;;;;;;;2.40;1.17;;;;;;;;;;5074281;28;20041;-88
2024/03/04 13:13:38;;;;;;;1.10;0.95;;;;;;;;;;5090669;28;20538;-88
2024/03/04 13:16:05;;;;;;;0.38;0.38;;;;;;;;;;5073918;28;20032;-87
2024/03/04 13:18:31;;;;;;;0.10;0.10;;;;;;;;;;5073630;28;20050;-85
2024/03/04 13:20:58;;;;;;;1.55;1.45;;;;;;;;;;5059587;28;20039;-86
2024/03/04 13:23:24;;;;;;;0.63;0.63;;;;;;;;;;5077515;28;20114;-85
2024/03/04 13:25:50;;;;;;;0.38;0.38;;;;;;;;;;5060759;28;20051;-85
2024/03/04 13:28:16;;;;;;;0.10;0.10;;;;;;;;;;5077930;28;20403;-85
2024/03/04 13:30:42;;;;;;;0.10;0.10;;;;;;;;;;5077360;28;20032;-85
2024/03/04 13:33:08;;;;;;;0.30;0.30;;;;;;;;;;5077230;28;20035;-86
2024/03/04 13:35:34;;;;;;;0.73;0.40;;;;;;;;;;5077309;28;20043;-87
2024/03/04 13:38:00;;;;;;;0.30;0.30;;;;;;;;;;5077115;28;20040;-87
2024/03/04 13:40:26;;;;;;;0.30;0.30;;;;;;;;;;5077139;28;20048;-88
2024/03/04 13:42:52;;;;;;;0.20;0.20;;;;;;;;;;5077211;28;20055;-87
2024/03/04 13:45:18;;;;;;;0.32;0.32;;;;;;;;;;5060476;28;20371;-87
2024/03/04 13:47:44;;;;;;;0.10;0.10;;;;;;;;;;5060679;28;20036;-87
2024/03/04 13:50:11;;;;;;;2.83;1.95;;;;;;;;;;5077039;28;20039;-88
2024/03/04 13:52:37;;;;;;;0.43;0.43;;;;;;;;;;5077061;28;20096;-88
2024/03/04 13:55:04;;;;;;;0.15;0.15;;;;;;;;;;5076944;28;20048;-89
2024/03/04 13:57:30;;;;;;;0.25;0.22;;;;;;;;;;5060034;28;20173;-88
2024/03/04 13:59:56;;;;;;;0.63;0.60;;;;;;;;;;5060574;28;20073;-87
2024/03/04 14:02:22;;;;;;;0.30;0.30;;;;;;;;;;5076967;28;20059;-88
2024/03/04 14:04:48;;;;;;;0.15;0.15;;;;;;;;;;5077136;28;20040;-87
2024/03/04 14:07:14;;;;;;;0.10;0.10;;;;;;;;;;5093999;28;20043;-89
2024/03/04 14:09:40;;;;;;;0.28;0.28;;;;;;;;;;5060426;28;20127;-88
2024/03/04 14:12:06;;;;;;;0.22;0.22;;;;;;;;;;5076763;28;20481;-87
2024/03/04 14:14:32;;;;;;;0.55;0.40;;;;;;;;;;5076662;28;20051;-87
2024/03/04 14:16:58;;;;;;;1.55;0.50;;;;;;;;;;5076789;28;20073;-88
2024/03/04 14:19:24;;;;;;;0.10;0.10;;;;;;;;;;5060247;28;20493;-88
2024/03/04 14:21:50;;;;;;;1.75;1.65;;;;;;;;;;5059934;28;20135;-88
2024/03/04 14:24:16;;;;;;;0.82;0.82;;;;;;;;;;5076839;28;20441;-88
2024/03/04 14:26:42;;;;;;;0.40;0.38;;;;;;;;;;5059956;28;20051;-88
2024/03/04 14:29:08;;;;;;;0.10;0.10;;;;;;;;;;5059789;28;20106;-88
2024/03/04 14:31:34;;;;;;;0.25;0.25;;;;;;;;;;5092381;28;20088;-88
2024/03/04 14:34:00;;;;;;;0.40;0.40;;;;;;;;;;5076563;28;20040;-88
2024/03/04 14:36:27;;;;;;;0.40;0.32;;;;;;;;;;5059484;28;20043;-89
2024/03/04 14:38:53;;;;;;;0.20;0.20;;;;;;;;;;5093190;28;20047;-87
2024/03/04 14:41:19;;;;;;;0.98;0.50;;;;;;;;;;5059542;28;20036;-87